Logo AVAMET
Benvolgut visitant, si us plau, ingressa Recuperar contrasenya

Inforatge Sagunt Policia Local

Dades diàries. Acumulats / Últims 30 dies disponibles

Data Temperatura (°C) Humitat rel. (%) Pressió rel. (hPa) Vent (km/h) Precipitació
Mínima Mitjana Màxima Amplitud
tèrmica
Mínima Mitjana Màxima Mínima Mitjana Màxima Predom. Mitjana Ràfega
màxima
Total
(mm)
Índex-n
Mínima Mitjana Màxima Mínima Mitjana Màxima n
0 a 1
P0 max
mm 5'
Dades mensuals acumulades fins l'últim dia disponible
05/2019 10,6 14,2 17,9 17,9 17,6 21,9 33,0 22,4 27 68 93 1.002 1.015 1.026   10,1 68,5 7,8
Dades anuals acumulades fins l'últim dia disponible
2019 3,0 9,8 17,9 14,0 11,1 18,4 33,0 30,0 18 62 97 991 1.020 1.037   10,4 98,2 67,4
Últims 30 dies disponibles
23-05-2019 15,0     19,2     23,1 8,1 55 73 85 1.015 1.017 1.020 SSE 8,0 24,1 0,0
22-05-2019 13,6     17,9     21,2 7,6 60 77 87 1.018 1.019 1.020 SSE 7,2 24,1 0,0
21-05-2019 14,4     17,5     20,6 6,2 58 75 88 1.015 1.016 1.018 S 8,0 33,9 2,6 0,34 0,40
20-05-2019 15,2     17,8     20,3 5,1 45 59 81 1.012 1.014 1.015 S 10,4 31,5 0,0
19-05-2019 12,6     17,6     24,7 12,1 28 56 74 1.009 1.011 1.013 OSO 9,8 42,6 1,0
18-05-2019 13,9     16,5     19,2 5,3 47 58 78 1.009 1.010 1.012 SSE 8,5 38,9 0,0
17-05-2019 15,1     19,4     23,5 8,4 33 52 84 1.002 1.005 1.010 OSO 14,5 68,5 0,0
16-05-2019 15,9     17,8     20,4 4,5 64 74 81 1.006 1.012 1.017 ESE 9,4 33,9 0,0
15-05-2019 14,6     17,5     20,2 5,6 69 77 82 1.012 1.013 1.017 ESE 11,2 40,7 0,0
14-05-2019 12,8     18,0     22,1 9,3 48 67 86 1.015 1.019 1.023 S 10,9 33,9 0,0
13-05-2019 14,2     17,8     21,4 7,2 45 75 91 1.020 1.021 1.023 ESE 7,6 24,1 0,0
12-05-2019 15,7     18,5     21,1 5,4 29 62 86 1.020 1.023 1.026 SSO 8,1 31,5 0,0
11-05-2019 16,7     19,4     22,6 5,9 60 76 88 1.015 1.019 1.025 E 8,5 32,2 0,0
10-05-2019 17,6     24,6     33,0 15,4 29 56 80 1.011 1.013 1.015 S 14,6 48,3 0,0
09-05-2019 17,9     22,2     29,9 12,0 28 52 78 1.010 1.012 1.014 SSO 14,6 56,3 0,0
08-05-2019 15,2     21,6     28,3 13,1 37 63 93 1.009 1.012 1.016 SO 19,9 64,8 0,0
07-05-2019 12,1     16,2     19,3 7,2 69 79 90 1.015 1.018 1.020 SSE 8,4 24,1 0,0
06-05-2019 10,6     14,9     17,6 7,0 48 68 83 1.018 1.020 1.021 SSE 8,8 27,8 0,0
05-05-2019 13,2     15,9     18,8 5,6 27 55 80 1.014 1.016 1.019 SSO 12,4 46,7 0,0
04-05-2019 11,2     15,2     19,1 7,9 45 63 87 1.012 1.013 1.015 SSO 10,8 32,2 0,0
03-05-2019 12,4     14,5     18,1 5,7 63 78 86 1.012 1.014 1.017 SSO 8,8 32,2 0,0
02-05-2019 14,3     16,3     19,2 4,9 59 81 91 1.015 1.016 1.018 SSE 5,7 24,1 1,4
01-05-2019 13,3     15,8     19,0 5,7 66 82 91 1.015 1.016 1.018 S 5,7 27,8 2,8 0,24 0,40
30-04-2019 12,7     15,7     18,4 5,7 71 81 87 1.018 1.018 1.020 S 7,9 25,9 0,0
29-04-2019 11,9     15,1     18,0 6,1 72 79 83 1.019 1.021 1.022 S 7,2 25,9 0,0
28-04-2019 12,8     15,8     19,3 6,5 53 70 84 1.021 1.024 1.026 SSE 7,6 31,5 0,0
27-04-2019 13,0     16,6     19,9 6,9 43 60 88 1.025 1.026 1.028 SSO 9,7 32,2 0,0
26-04-2019 11,1     16,1     20,8 9,7 33 54 72 1.018 1.022 1.026 SSO 11,6 45,0 0,0
25-04-2019 14,6     17,8     21,9 7,3 34 56 73 1.009 1.012 1.018 OSO 16,9 72,4 0,0
24-04-2019 10,3     15,1     19,3 9,0 41 60 78 1.004 1.009 1.011 SO 14,7 50,0 0,0
Últims 13 mesos disponibles
04/2019 8,3 11,6 14,6 15,2 15,4 19,3 27,2 18,9 43 65 93 1.000 1.014 1.026 OSO 13,0 79,6 37,2
03/2019 7,2 9,7 15,2 14,2 12,5 18,5 27,5 20,3 42 60 85 1.012 1.024 1.031 S 9,1 64,8 22,0
02/2019 3,3 7,4 11,1 12,0 13,8 16,8 22,6 19,3 30 63 76 994 1.025 1.035 SO 9,5 98,2 0,0
01/2019 3,0 6,8 12,1 11,4 11,1 16,1 20,7 17,7 39 57 76 1.002 1.019 1.031 OSO 10,1 88,9 0,4
12/2018 5,6 9,0 12,8 13,2 13,8 17,8 25,2 19,6 49 69 84 1.008 1.025 1.031 OSO 8,1 61,1 12,2
11/2018 7,3 11,7 15,9 14,8 14,4 18,4 23,3 16,0 46 71 93 1.003 1.016 1.025 OSO 10,7 80,6 106,0
10/2018 9,3 15,5 19,2 18,8 14,0 22,3 26,3 17,0 41 69 90 1.000 1.015 1.026 SSO 9,5 64,8 176,8
09/2018 17,6 21,0 24,0 24,2 24,3 27,4 31,3 13,7 51 75 85 1.013 1.020 1.029 8,1 45,0 54,8
08/2018 20,8 23,5 27,3 26,8 26,2 29,8 35,1 14,3 52 70 80 1.013 1.017 1.022 8,4 53,7 17,2
Tots els anys disponibles
Temperatura (°C)
Humitat relativa (%)
Velocitat del vent i ràfega màxima (km/h)
Direcció del vent (°)
Pressió (hPa)
Precipitació (mm)
Nota sobre les dades: s'avisa a l'usuari de la provisionalitat i no oficialitat d'aquestes dades
Logo AVAMET blanc
Web allotjada a Sollutia
Llicència de Creative CommonsLa web d'AVAMET i els seus continguts estan subjectes a una llicència de
Reconeixement - No Comercial - Compartir igual
Properes estacions: Altea - Club Nàutic d'Altea (Soci), Ontinyent - El Pilar (Soci), Ares del Maestrat (Ajuntament Soci), Catadau - L'Altet (Inforatge)     - - - - -      Últimes estacions: Asp - Poliesportiu (Soci), Jacarilla - centro (MeteOrihuela), Elx - Maitino/Vallverda/Velarde/Matola/Ferriol (Soci TiempoElche.com), Orihuela - Playa Flamenca (MeteOrihuela), - - -